Latest Weather Observations for Kowanyama

IDQ60801

Issued at 11:02 am EST Sunday 21 December 2014 (issued every 30 minutes, with the page automatically refreshed every 10 minutes)

About weather observations | Map of weather stations | Latest weather observations for QLD | Other Formats
Station Details ID: 029038 Name: KOWANYAMA AIRPORT Lat: -15.48 Lon: 141.75 Height: 9.6 m
Data from the previous 72 hours. | See also: Recent months at Kowanyama
Date/Time
EST
Temp
°C
App
Temp
°C
Dew
Point
Rel
Hum
%
Delta-T
°C
Wind Press
QNH
hPa
Press
MSL
hPa
Rain
since 9 am
mm
Dir
 
Spd
km/h
Gust
km/h
Spd
kts
Gust
kts
21/11:00am 32.3 36.1 22.7 57 6.6 E 7 15 4 8 1010.8 1010.7 0.0
21/10:30am 31.5 34.2 22.8 60 6.0 ENE 13 20 7 11 1010.8 1010.7 0.0
21/10:00am 30.9 33.7 23.0 62 5.4 NE 13 20 7 11 1010.8 1010.7 0.0
21/09:30am 30.3 33.6 23.2 65 4.9 NE 11 19 6 10 1010.9 1010.8 0.0
21/09:00am 29.8 32.9 23.5 69 4.3 NE 13 22 7 12 1010.7 1010.6 1.8
21/08:30am 29.2 31.5 23.4 71 4.0 NE 17 26 9 14 1010.6 1010.5 1.8
21/08:00am 28.5 30.9 23.0 72 3.8 ENE 15 22 8 12 1010.3 1010.2 1.8
21/07:30am 27.8 31.2 23.4 77 3.0 ENE 11 17 6 9 1010.0 1009.9 1.8
21/07:00am 27.2 31.0 23.4 80 2.6 NE 9 17 5 9 1009.9 1009.8 1.8
21/06:30am 26.8 30.6 23.5 82 2.3 NE 9 15 5 8 1009.7 1009.6 1.8
21/06:00am 26.7 30.9 23.4 82 2.3 NE 7 11 4 6 1009.3 1009.2 1.8
21/05:30am 26.8 30.5 23.3 81 2.4 NE 9 15 5 8 1008.9 1008.8 1.8
21/05:00am 27.1 30.8 23.3 80 2.6 NNE 9 15 5 8 1008.6 1008.5 1.8
21/04:30am 26.7 31.1 23.8 84 2.0 NNE 7 11 4 6 1008.4 1008.3 1.8
21/04:00am 26.6 31.4 24.1 86 1.7 NNE 6 11 3 6 1008.0 1007.9 1.8
21/03:30am 26.4 32.4 24.2 88 1.5 CALM 0 0 0 0 1008.1 1008.0 1.8
21/03:00am 26.6 32.3 24.4 88 1.5 NE 2 6 1 3 1008.3 1008.2 1.8
21/02:30am 26.7 31.7 24.5 88 1.5 ENE 6 9 3 5 1008.2 1008.1 1.8
21/02:00am 26.5 30.9 24.5 89 1.4 NE 9 13 5 7 1008.3 1008.2 1.8
21/01:30am 26.2 31.2 24.8 92 1.0 NE 7 9 4 5 1008.4 1008.3 1.8
21/01:00am 26.2 31.3 25.0 93 0.8 NE 7 9 4 5 1008.5 1008.4 1.8
21/12:30am 26.0 32.5 25.0 94 0.7 CALM 0 0 0 0 1008.6 1008.5 1.8
21/12:00am 26.1 32.4 24.7 92 1.0 CALM 0 0 0 0 1008.6 1008.5 1.8
 
Date/Time
EST
Temp
°C
App
Temp
°C
Dew
Point
Rel
Hum
%
Delta-T
°C
Wind Press
QNH
hPa
Press
MSL
hPa
Rain
since 9 am
mm
Dir
 
Spd
km/h
Gust
km/h
Spd
kts
Gust
kts
20/11:30pm 26.4 32.7 24.8 91 1.1 CALM 0 0 0 0 1008.5 1008.4 1.8
20/11:00pm 26.6 33.1 25.0 91 1.1 CALM 0 0 0 0 1008.3 1008.2 1.8
20/10:30pm 26.3 32.7 24.9 92 1.0 CALM 0 0 0 0 1008.0 1007.9 1.8
20/10:00pm 26.4 32.7 24.8 91 1.1 CALM 0 0 0 0 1008.0 1007.9 1.8
20/09:30pm 26.9 33.0 24.5 87 1.7 CALM 0 0 0 0 1008.0 1007.9 1.8
20/09:00pm 27.4 33.4 24.3 83 2.1 CALM 0 0 0 0 1007.8 1007.7 1.8
20/08:30pm 27.8 33.3 24.0 80 2.6 NW 2 6 1 3 1007.8 1007.7 1.8
20/08:00pm 28.1 32.2 24.5 81 2.5 WNW 11 15 6 8 1007.4 1007.3 1.8
20/07:30pm 28.4 33.3 24.6 80 2.6 WNW 7 9 4 5 1007.4 1007.3 1.8
20/07:00pm 29.0 33.3 24.3 76 3.3 WNW 9 13 5 7 1007.4 1007.3 1.8
20/06:30pm 29.6 32.9 23.8 71 4.0 WNW 13 17 7 9 1007.3 1007.2 1.8
20/06:00pm 30.3 34.1 23.5 67 4.7 NNW 9 15 5 8 1007.0 1006.9 1.8
20/05:30pm 30.7 34.8 23.9 67 4.7 NNW 9 15 5 8 1006.6 1006.5 1.8
20/05:00pm 30.0 33.0 23.4 67 4.6 NNW 13 19 7 10 1006.6 1006.5 1.8
20/04:30pm 30.8 35.1 23.7 66 4.9 N 7 11 4 6 1006.6 1006.5 1.8
20/04:00pm 30.8 35.6 24.2 68 4.6 NE 6 7 3 4 1006.7 1006.6 1.8
20/03:30pm 30.5 35.2 23.9 68 4.6 E 6 9 3 5 1006.8 1006.7 1.8
20/03:00pm 30.0 34.0 23.7 69 4.4 ESE 9 13 5 7 1006.8 1006.7 1.8
20/02:30pm 30.2 35.1 24.4 71 4.0 NE 6 9 3 5 1007.1 1007.0 1.8
20/02:00pm 29.4 33.4 23.8 72 3.9 NE 9 13 5 7 1007.6 1007.5 1.8
20/01:30pm 28.6 32.9 23.7 75 3.4 N 7 9 4 5 1008.4 1008.3 1.8
20/01:00pm 28.0 33.1 24.0 79 2.8 NNE 4 9 2 5 1009.2 1009.1 1.8
20/12:30pm 27.5 33.5 24.3 83 2.2 CALM 0 6 0 3 1009.9 1009.8 1.8
20/12:00pm 26.6 31.5 24.4 88 1.5 N 6 9 3 5 1009.9 1009.8 1.8
20/11:30am 26.1 31.7 24.3 90 1.2 N 2 7 1 4 1010.3 1010.2 1.8
20/11:00am 25.5 30.1 24.1 92 1.0 N 7 11 4 6 1010.6 1010.5 1.8
20/10:30am 24.9 29.2 23.7 93 0.8 NW 7 9 4 5 1010.8 1010.7 1.8
20/10:00am 24.9 29.0 23.3 91 1.1 NW 7 11 4 6 1011.0 1010.9 1.0
20/09:30am 24.9 28.4 23.5 92 1.0 NW 11 13 6 7 1011.1 1011.0 0.4
20/09:00am 25.0 29.0 23.8 93 0.8 NW 9 15 5 8 1011.0 1010.9 3.8
20/08:30am 24.6 28.4 23.4 93 0.8 N 9 15 5 8 1010.9 1010.8 3.6
20/08:00am 24.5 27.5 23.3 93 0.8 E 13 19 7 10 1010.8 1010.7 2.0
20/07:30am 24.5 26.4 22.7 90 1.2 E 17 26 9 14 1010.3 1010.2 0.0
20/07:00am 26.1 27.1 22.2 79 2.6 E 20 30 11 16 1010.1 1010.0 0.0
20/06:30am 26.3 28.8 23.2 83 2.1 ENE 15 24 8 13 1009.5 1009.4 0.0
20/06:00am 26.2 28.8 22.7 81 2.4 NNE 13 20 7 11 1008.3 1008.2 0.0
20/05:30am 27.4 31.2 23.4 79 2.7 NNE 9 13 5 7 1008.3 1008.2 0.0
20/05:00am 28.2 32.3 24.0 78 2.9 NNE 9 17 5 9 1007.9 1007.8 0.0
20/04:30am 28.3 33.4 25.5 85 2.0 NE 9 15 5 8 1007.9 1007.8 0.0
20/04:00am 28.2 33.7 26.2 89 1.4 NE 9 13 5 7 1007.6 1007.5 0.0
20/03:30am 28.2 33.7 26.2 89 1.4 NNE 9 11 5 6 1007.2 1007.1 0.0
20/03:00am 28.3 34.3 26.3 89 1.4 NNE 7 9 4 5 1007.3 1007.2 0.0
20/02:30am 28.2 33.7 26.2 89 1.4 NNE 9 11 5 6 1008.0 1007.9 0.0
20/02:00am 28.2 34.1 26.2 89 1.4 NNE 7 9 4 5 1007.8 1007.7 0.0
20/01:30am 28.4 34.5 26.2 88 1.6 NNE 6 9 3 5 1008.1 1008.0 0.0
20/01:00am 28.4 34.3 26.2 88 1.6 NNE 7 11 4 6 1008.7 1008.6 0.0
20/12:30am 28.7 34.7 26.1 86 1.8 W 6 7 3 4 1008.5 1008.4 0.0
20/12:00am 28.8 34.6 26.0 85 2.0 WSW 7 9 4 5 1008.6 1008.5 0.0
 
Date/Time
EST
Temp
°C
App
Temp
°C
Dew
Point
Rel
Hum
%
Delta-T
°C
Wind Press
QNH
hPa
Press
MSL
hPa
Rain
since 9 am
mm
Dir
 
Spd
km/h
Gust
km/h
Spd
kts
Gust
kts
19/11:30pm 29.0 35.0 26.0 84 2.1 WSW 6 7 3 4 1009.0 1008.9 0.0
19/11:00pm 29.3 35.2 25.9 82 2.4 WNW 6 6 3 3 1009.3 1009.2 0.0
19/10:30pm 29.4 35.3 26.2 83 2.3 SW 7 9 4 5 1009.2 1009.1 0.0
19/10:00pm 29.4 34.8 26.0 82 2.4 WSW 9 11 5 6 1008.6 1008.5 0.0
19/09:30pm 29.6 35.0 26.0 81 2.6 WSW 9 11 5 6 1008.6 1008.5 0.0
19/09:00pm 29.9 35.6 25.9 79 2.8 W 7 9 4 5 1008.5 1008.4 0.0
19/08:30pm 30.1 35.2 25.6 77 3.2 W 9 11 5 6 1008.2 1008.1 0.0
19/08:00pm 30.5 35.4 25.3 74 3.7 WSW 9 13 5 7 1007.8 1007.7 0.0
19/07:30pm 31.0 35.6 25.4 72 4.0 W 11 15 6 8 1007.8 1007.7 0.0
19/07:00pm 31.4 35.6 25.3 70 4.3 W 13 20 7 11 1007.5 1007.4 0.0
19/06:30pm 32.2 36.2 25.0 65 5.1 WNW 13 19 7 10 1007.3 1007.2 0.0
19/06:00pm 32.9 36.1 24.9 63 5.7 W 17 20 9 11 1006.9 1006.8 0.0
19/05:30pm 33.1 35.5 24.3 60 6.2 W 19 24 10 13 1006.8 1006.7 0.0
19/05:00pm 33.6 36.8 25.6 63 5.7 W 19 26 10 14 1006.8 1006.7 0.0
19/04:30pm 33.9 37.5 25.6 62 5.9 W 17 22 9 12 1006.7 1006.6 0.0
19/04:00pm 34.5 38.4 26.1 61 6.0 WNW 17 24 9 13 1006.8 1006.7 0.0
19/03:30pm 34.7 37.9 25.8 60 6.4 WNW 20 24 11 13 1006.9 1006.8 0.0
19/03:00pm 34.1 37.5 25.2 59 6.3 WNW 17 24 9 13 1007.2 1007.1 0.0
19/02:30pm 34.9 38.6 25.7 59 6.6 W 17 24 9 13 1007.6 1007.5 0.0
19/02:00pm 35.5 39.3 22.8 47 8.8 WSW 7 13 4 7 1008.0 1007.9 0.0
19/01:30pm 35.3 39.4 23.3 50 8.4 S 7 11 4 6 1008.4 1008.3 0.0
19/01:00pm 34.7 39.2 24.0 53 7.5 NNW 7 11 4 6 1008.9 1008.8 0.0
19/12:30pm 34.3 38.4 23.0 51 7.8 ENE 6 15 3 8 1009.5 1009.4 0.0
19/12:00pm 33.7 38.1 23.4 55 7.2 NNE 6 11 3 6 1009.8 1009.7 0.0
19/11:30am 33.5 38.1 24.1 58 6.6 NNE 7 11 4 6 1010.2 1010.1 0.0
19/11:00am 32.8 37.3 24.0 60 6.1 N 7 15 4 8 1010.5 1010.4 0.0
19/10:30am 31.4 35.0 23.8 64 5.3 N 11 17 6 9 1010.9 1010.8 0.0
19/10:00am 30.8 34.2 24.0 67 4.7 NNW 13 19 7 10 1011.0 1010.9 0.0
19/09:30am 30.6 34.0 24.0 68 4.6 NNE 13 20 7 11 1010.8 1010.7 0.0
19/09:00am 29.9 33.2 23.8 70 4.2 NNE 13 20 7 11 1010.9 1010.8 0.0
19/08:30am 29.1 32.1 23.3 71 4.0 NNE 13 19 7 10 1010.8 1010.7 0.0
19/08:00am 29.1 32.2 24.2 75 3.4 NNE 15 20 8 11 1010.5 1010.4 0.0
19/07:30am 28.5 32.4 24.3 78 2.9 NE 11 17 6 9 1010.6 1010.5 0.0
19/07:00am 27.9 32.6 24.3 81 2.5 ENE 7 11 4 6 1010.0 1009.9 0.0
19/06:30am 26.9 31.8 24.4 86 1.7 E 6 7 3 4 1009.5 1009.4 0.0
19/06:00am 26.7 32.8 24.4 87 1.6 CALM 0 0 0 0 1009.1 1009.0 0.0
19/05:30am 26.6 32.8 24.6 89 1.4 CALM 0 0 0 0 1009.0 1008.9 0.0
19/05:00am 26.8 32.8 24.3 86 1.7 CALM 0 0 0 0 1008.9 1008.8 0.0
19/04:30am 27.3 33.3 24.2 83 2.1 CALM 0 0 0 0 1008.6 1008.5 0.0
19/04:00am 27.6 33.1 24.0 81 2.5 ENE 2 6 1 3 1008.8 1008.7 0.0
19/03:30am 27.8 33.4 24.2 81 2.5 E 2 7 1 4 1008.9 1008.8 0.0
19/03:00am 28.4 32.9 24.6 80 2.7 SE 9 11 5 6 1008.9 1008.8 0.0
19/02:30am 28.4 33.8 25.4 84 2.1 E 7 11 4 6 1009.0 1008.9 0.0
19/02:00am 28.6 34.2 25.8 85 2.0 ESE 7 9 4 5 1009.1 1009.0 0.0
19/01:30am 28.8 34.4 25.8 84 2.1 ESE 7 9 4 5 1009.2 1009.1 0.0
19/01:00am 28.7 34.4 25.9 85 2.0 SSE 7 11 4 6 1009.2 1009.1 0.0
19/12:30am 28.8 33.7 25.8 84 2.1 S 11 13 6 7 1009.1 1009.0 0.0
19/12:00am 28.8 33.5 25.6 83 2.3 S 11 15 6 8 1009.1 1009.0 0.0
 
Date/Time
EST
Temp
°C
App
Temp
°C
Dew
Point
Rel
Hum
%
Delta-T
°C
Wind Press
QNH
hPa
Press
MSL
hPa
Rain
since 9 am
mm
Dir
 
Spd
km/h
Gust
km/h
Spd
kts
Gust
kts
18/11:30pm 29.0 33.7 25.6 82 2.4 S 11 17 6 9 1009.8 1009.7 0.0
18/11:00pm 29.3 34.4 25.5 80 2.7 SSW 9 13 5 7 1009.5 1009.4 0.0
18/10:30pm 29.5 34.6 25.5 79 2.8 SSW 9 15 5 8 1010.1 1010.0 0.0
18/10:00pm 29.8 34.0 25.3 77 3.2 SSW 13 17 7 9 1010.4 1010.3 0.0
18/09:30pm 30.0 34.2 25.3 76 3.3 SW 13 17 7 9 1009.9 1009.8 0.0
18/09:00pm 30.0 34.4 25.1 75 3.5 WSW 11 15 6 8 1009.1 1009.0 0.0
18/08:30pm 30.2 34.4 24.8 73 3.8 WSW 11 17 6 9 1008.5 1008.4 0.0
18/08:00pm 30.6 34.3 24.5 70 4.3 W 13 19 7 10 1008.5 1008.4 0.0
18/07:30pm 31.1 34.6 24.2 66 4.8 SW 13 17 7 9 1008.5 1008.4 0.0
18/07:00pm 31.5 34.6 23.6 63 5.5 SW 13 19 7 10 1008.9 1008.8 0.0
18/06:30pm 31.9 34.1 24.0 63 5.5 WSW 19 26 10 14 1008.2 1008.1 0.0
18/06:00pm 32.4 34.3 24.4 62 5.6 W 22 30 12 16 1007.7 1007.6 0.0
18/05:30pm 33.0 34.1 23.6 57 6.5 W 24 33 13 18 1006.7 1006.6 0.0
18/05:00pm 33.3 34.2 22.7 53 7.3 WNW 22 30 12 16 1006.8 1006.7 0.0
18/04:30pm 34.8 36.0 23.2 51 8.1 W 22 32 12 17 1006.7 1006.6 0.0
18/04:00pm 35.1 36.1 22.1 47 8.9 W 20 28 11 15 1006.9 1006.8 0.0
18/03:30pm 35.2 36.6 22.5 47 8.7 W 19 26 10 14 1007.4 1007.3 0.0
18/03:00pm 35.4 37.4 23.0 48 8.6 WNW 17 24 9 13 1007.6 1007.5 0.0
18/02:30pm 35.0 37.2 23.3 50 8.1 W 17 20 9 11 1008.1 1008.0 0.0
18/02:00pm 35.3 38.7 24.6 54 7.6 NW 15 20 8 11 1008.4 1008.3 0.0
18/01:30pm 35.1 38.9 23.4 50 8.1 WSW 9 15 5 8 1008.5 1008.4 0.0
18/01:00pm 34.3 37.3 23.3 52 7.6 WNW 13 20 7 11 1008.8 1008.7 0.0
18/12:30pm 35.1 39.7 24.1 53 7.7 WNW 7 13 4 7 1009.0 1008.9 0.0
18/12:00pm 34.8 39.6 24.1 53 7.5 WSW 6 13 3 7 1009.5 1009.4 0.0
18/11:30am 33.8 37.5 23.2 54 7.3 NNE 9 15 5 8 1009.9 1009.8 0.0

Other Formats:

Comma delimited format used in spreadsheet applications
http://www.bom.gov.au/fwo/IDQ60801/IDQ60801.94268.axf

JavaScript Object Notation format (JSON) in row-major order
http://www.bom.gov.au/fwo/IDQ60801/IDQ60801.94268.json